Time;durP1;ratioP1;P1;durP2;ratioP2;P2;SDS_P1;SDS_P2;PMS_P1;PMS_P2;Temp;Humidity;BMP_temperature;BMP_pressure;BME280_temperature;BME280_humidity;BME280_pressure;Samples;Min_cycle;Max_cycle;Signal;HPM_P1;HPM_P2
2020/12/18 00:02:06;;;;;;;16.50;14.47;;;;;;;0.07;100.00;98919.28;5005833;28;20232;-71
2020/12/18 00:04:41;;;;;;;16.80;14.93;;;;;;;0.03;100.00;98920.34;4992965;28;20227;-72
2020/12/18 00:07:09;;;;;;;15.37;13.77;;;;;;;0.02;100.00;98918.66;4982664;28;20687;-71
2020/12/18 00:09:36;;;;;;;14.50;13.00;;;;;;;0.10;100.00;98914.78;5007667;28;20204;-72
2020/12/18 00:12:04;;;;;;;15.73;14.17;;;;;;;0.27;100.00;98923.53;5005620;28;20219;-71
2020/12/18 00:14:31;;;;;;;18.37;16.30;;;;;;;0.12;100.00;98917.28;4971727;28;20447;-71
2020/12/18 00:16:58;;;;;;;17.40;15.30;;;;;;;0.11;100.00;98924.28;5005310;28;20239;-71
2020/12/18 00:19:25;;;;;;;16.10;14.50;;;;;;;0.14;100.00;98928.50;4991678;28;20413;-71
2020/12/18 00:21:55;;;;;;;16.80;15.10;;;;;;;0.21;100.00;98929.03;4980700;28;20498;-72
2020/12/18 00:24:22;;;;;;;16.60;14.60;;;;;;;0.22;100.00;98934.19;5005876;28;20290;-71
2020/12/18 00:26:49;;;;;;;16.13;14.43;;;;;;;0.30;100.00;98932.97;5005956;28;20228;-72
2020/12/18 00:29:17;;;;;;;14.93;13.47;;;;;;;0.32;100.00;98928.53;4979747;28;20921;-71
2020/12/18 00:31:44;;;;;;;17.80;14.97;;;;;;;0.40;100.00;98932.44;4999993;28;20209;-72
2020/12/18 00:34:11;;;;;;;16.43;14.90;;;;;;;0.50;100.00;98940.63;5000740;28;20220;-71
2020/12/18 00:36:38;;;;;;;16.80;14.80;;;;;;;0.60;100.00;98937.59;4995266;28;20951;-71
2020/12/18 00:39:07;;;;;;;16.33;14.13;;;;;;;0.69;100.00;98937.94;4982692;28;20217;-71
2020/12/18 00:41:34;;;;;;;16.20;14.57;;;;;;;0.75;100.00;98942.00;4995750;28;20521;-72
2020/12/18 00:44:01;;;;;;;17.77;15.87;;;;;;;0.76;100.00;98935.88;5002917;28;20214;-72
2020/12/18 00:46:29;;;;;;;16.17;14.47;;;;;;;0.80;100.00;98939.19;4969569;28;20450;-72
2020/12/18 00:48:56;;;;;;;17.80;15.97;;;;;;;0.85;100.00;98930.16;5007802;28;20208;-71
2020/12/18 00:51:22;;;;;;;18.23;15.13;;;;;;;0.83;100.00;98931.19;4988049;28;20331;-71
2020/12/18 00:53:49;;;;;;;17.40;15.53;;;;;;;0.90;100.00;98934.31;4980310;28;20319;-72
2020/12/18 00:56:16;;;;;;;20.37;17.00;;;;;;;0.79;100.00;98938.31;5006161;28;20201;-70
2020/12/18 00:58:44;;;;;;;18.40;16.50;;;;;;;0.88;100.00;98928.31;5006809;28;20258;-71
2020/12/18 01:01:11;;;;;;;21.27;17.37;;;;;;;0.96;100.00;98939.22;4977504;28;20432;-70
2020/12/18 01:03:39;;;;;;;19.63;16.20;;;;;;;1.30;100.00;98935.66;5002516;28;20200;-71
2020/12/18 01:06:08;;;;;;;19.70;17.73;;;;;;;1.19;100.00;98935.41;4995530;28;20217;-70
2020/12/18 01:08:35;;;;;;;18.70;16.67;;;;;;;1.23;100.00;98936.06;5007652;28;20235;-71
2020/12/18 01:11:04;;;;;;;19.77;17.73;;;;;;;1.15;100.00;98937.31;4976871;28;20205;-70
2020/12/18 01:13:31;;;;;;;18.10;15.90;;;;;;;1.32;100.00;98939.97;4998683;28;20456;-71
2020/12/18 01:15:58;;;;;;;18.50;15.80;;;;;;;1.20;100.00;98937.09;4978810;28;20204;-73
2020/12/18 01:18:25;;;;;;;17.20;15.40;;;;;;;1.19;100.00;98942.38;5001742;28;20285;-71
2020/12/18 01:20:53;;;;;;;17.10;15.07;;;;;;;1.25;100.00;98939.44;4991802;28;20212;-72
2020/12/18 01:23:20;;;;;;;16.40;14.70;;;;;;;1.33;100.00;98945.13;5004795;28;20205;-71
2020/12/18 01:25:58;;;;;;;18.47;16.50;;;;;;;1.37;100.00;98938.81;4982182;28;20269;-71
2020/12/18 01:28:25;;;;;;;17.53;14.77;;;;;;;1.37;100.00;98941.41;5002832;28;20220;-72
2020/12/18 01:30:52;;;;;;;16.90;15.00;;;;;;;1.37;100.00;98943.16;5002114;28;20212;-73
2020/12/18 01:33:19;;;;;;;16.27;14.27;;;;;;;1.33;100.00;98952.97;4976633;28;20229;-71
2020/12/18 01:35:46;;;;;;;16.77;13.67;;;;;;;1.38;100.00;98952.69;5006636;28;20752;-71
2020/12/18 01:38:14;;;;;;;14.50;13.10;;;;;;;1.26;100.00;98954.19;4991670;28;20231;-70
2020/12/18 01:40:41;;;;;;;14.67;13.17;;;;;;;1.31;100.00;98954.78;5009080;28;20200;-71
2020/12/18 01:43:08;;;;;;;17.20;15.50;;;;;;;1.22;100.00;98958.75;4984677;28;20530;-71
2020/12/18 01:45:35;;;;;;;14.33;13.00;;;;;;;1.15;100.00;98952.16;4989499;28;20693;-71
2020/12/18 01:48:03;;;;;;;14.97;13.53;;;;;;;1.08;100.00;98956.00;4980303;28;20240;-71
2020/12/18 01:50:30;;;;;;;16.33;14.70;;;;;;;0.99;100.00;98957.34;5002108;28;20208;-72
2020/12/18 01:52:57;;;;;;;15.70;14.20;;;;;;;0.81;100.00;98964.34;4995778;28;20216;-71
2020/12/18 01:55:27;;;;;;;15.90;14.20;;;;;;;0.77;100.00;98968.88;5000932;28;20231;-71
2020/12/18 01:57:55;;;;;;;15.83;14.23;;;;;;;0.72;100.00;98973.47;4984929;28;20232;-72
2020/12/18 02:00:22;;;;;;;14.27;12.90;;;;;;;0.91;100.00;98972.53;5008594;28;20215;-70
2020/12/18 02:02:50;;;;;;;15.37;13.87;;;;;;;0.73;100.00;98975.16;4978116;28;20235;-72
2020/12/18 02:05:17;;;;;;;16.10;14.40;;;;;;;0.65;100.00;98965.09;4999094;28;20246;-70
2020/12/18 02:07:51;;;;;;;15.67;14.10;;;;;;;0.61;100.00;98960.97;4991898;28;20231;-70
2020/12/18 02:10:18;;;;;;;15.90;14.23;;;;;;;0.72;100.00;98955.22;5004468;28;20215;-70
2020/12/18 02:12:47;;;;;;;15.37;13.90;;;;;;;0.93;100.00;98962.84;5006248;28;20213;-72
2020/12/18 02:15:14;;;;;;;14.87;13.47;;;;;;;0.88;100.00;98970.06;4981607;28;20235;-70
2020/12/18 02:17:41;;;;;;;14.03;12.60;;;;;;;0.90;100.00;98973.44;5002170;28;20672;-70
2020/12/18 02:20:08;;;;;;;14.03;12.77;;;;;;;0.71;100.00;98971.78;4975311;28;20213;-70
2020/12/18 02:22:35;;;;;;;14.73;13.07;;;;;;;0.75;100.00;98972.47;4990951;28;20485;-71
2020/12/18 02:25:06;;;;;;;13.67;12.33;;;;;;;0.65;100.00;98969.50;5004890;28;20230;-71
2020/12/18 02:27:35;;;;;;;15.37;13.87;;;;;;;0.71;100.00;98967.41;5001530;28;20931;-72
2020/12/18 02:30:02;;;;;;;13.67;12.27;;;;;;;0.66;100.00;98965.97;4984271;28;20219;-72
2020/12/18 02:32:29;;;;;;;13.17;11.87;;;;;;;0.60;100.00;98963.66;5005301;28;20219;-71
2020/12/18 02:34:56;;;;;;;13.77;12.37;;;;;;;0.43;100.00;98963.59;4976849;28;20240;-71
2020/12/18 02:37:23;;;;;;;14.17;12.70;;;;;;;0.35;100.00;98957.88;5002302;28;20638;-72
2020/12/18 02:39:56;;;;;;;13.77;12.40;;;;;;;0.34;100.00;98953.59;4992887;28;20232;-71
2020/12/18 02:42:23;;;;;;;14.37;12.97;;;;;;;0.36;100.00;98954.34;5000800;28;20212;-70
2020/12/18 02:44:51;;;;;;;13.87;12.60;;;;;;;0.35;100.00;98952.66;4977763;28;20228;-73
2020/12/18 02:47:18;;;;;;;13.53;12.37;;;;;;;0.38;100.00;98949.06;4999217;28;20353;-72
2020/12/18 02:49:45;;;;;;;14.10;12.83;;;;;;;0.22;100.00;98960.28;4973378;28;20697;-72
2020/12/18 02:52:21;;;;;;;16.33;12.43;;;;;;;0.13;100.00;98951.13;5008220;28;20393;-72
2020/12/18 02:54:48;;;;;;;14.80;13.20;;;;;;;0.31;100.00;98943.31;4991652;28;20224;-72
2020/12/18 02:57:15;;;;;;;13.77;12.53;;;;;;;0.22;100.00;98955.06;5006204;28;20215;-71
2020/12/18 02:59:43;;;;;;;13.20;11.97;;;;;;;0.14;100.00;98938.91;5005114;28;20209;-72
2020/12/18 03:02:11;;;;;;;14.77;13.27;;;;;;;0.26;100.00;98940.94;4976992;28;20451;-70
2020/12/18 03:04:38;;;;;;;13.93;12.63;;;;;;;0.10;100.00;98947.81;5011180;28;20457;-70
2020/12/18 03:07:05;;;;;;;14.00;12.70;;;;;;;-0.01;100.00;98946.56;4968303;28;20225;-70
2020/12/18 03:09:32;;;;;;;16.47;14.30;;;;;;;0.12;100.00;98951.19;4994744;28;20435;-72
2020/12/18 03:11:59;;;;;;;16.47;13.93;;;;;;;0.19;100.00;98944.78;5008938;28;20208;-70
2020/12/18 03:14:26;;;;;;;14.80;13.00;;;;;;;0.07;100.00;98948.81;5005184;28;20437;-71
2020/12/18 03:16:53;;;;;;;15.63;13.90;;;;;;;0.01;100.00;98948.25;4985610;28;20235;-71
2020/12/18 03:19:21;;;;;;;15.83;14.10;;;;;;;-0.06;100.00;98943.34;5007384;28;20327;-72
2020/12/18 03:21:48;;;;;;;15.67;14.03;;;;;;;-0.09;100.00;98945.25;4977201;28;20219;-72
2020/12/18 03:24:15;;;;;;;13.30;11.83;;;;;;;-0.20;100.00;98940.53;4990845;28;20457;-70
2020/12/18 03:26:42;;;;;;;15.87;14.10;;;;;;;-0.25;100.00;98950.31;5011345;28;20580;-72
2020/12/18 03:29:09;;;;;;;14.40;12.97;;;;;;;-0.15;100.00;98951.59;5002520;28;20204;-70
2020/12/18 03:31:36;;;;;;;15.50;14.00;;;;;;;-0.30;100.00;98945.34;4982398;28;20200;-70
2020/12/18 03:34:03;;;;;;;15.50;13.97;;;;;;;-0.17;100.00;98950.84;5008187;28;20275;-71
2020/12/18 03:36:36;;;;;;;16.30;14.57;;;;;;;-0.14;100.00;98948.09;4976873;28;20489;-72
2020/12/18 03:39:05;;;;;;;14.93;13.50;;;;;;;0.02;100.00;98947.34;5010473;28;20651;-70
2020/12/18 03:41:32;;;;;;;16.40;14.27;;;;;;;0.05;100.00;98944.59;4982265;28;20338;-72
2020/12/18 03:43:59;;;;;;;16.43;14.70;;;;;;;0.16;100.00;98944.91;5008956;28;20924;-70
2020/12/18 03:46:26;;;;;;;16.03;14.33;;;;;;;0.27;100.00;98947.84;4981236;28;21216;-72
2020/12/18 03:48:53;;;;;;;16.70;15.00;;;;;;;0.43;100.00;98947.94;5011426;28;20208;-72
2020/12/18 03:51:21;;;;;;;16.33;14.43;;;;;;;0.42;100.00;98943.66;4962699;28;24510;-72
2020/12/18 03:53:49;;;;;;;18.20;14.87;;;;;;;0.69;100.00;98948.38;5007478;28;20315;-70
2020/12/18 03:56:16;;;;;;;20.63;15.23;;;;;;;0.64;100.00;98950.38;4991976;28;20271;-72
2020/12/18 03:58:43;;;;;;;19.93;16.53;;;;;;;0.66;100.00;98952.91;5008017;28;20387;-72
2020/12/18 04:01:10;;;;;;;21.23;17.27;;;;;;;0.72;100.00;98956.03;5001053;28;20204;-71
2020/12/18 04:03:37;;;;;;;20.27;16.03;;;;;;;0.77;100.00;98960.22;4978203;28;20321;-73
2020/12/18 04:06:04;;;;;;;20.40;16.10;;;;;;;0.90;100.00;98963.88;5001714;28;20240;-71
2020/12/18 04:08:32;;;;;;;19.50;15.53;;;;;;;1.00;100.00;98964.25;4948600;28;20323;-72
2020/12/18 04:11:08;;;;;;;16.53;14.17;;;;;;;1.01;100.00;98963.31;5001824;28;20209;-71
2020/12/18 04:13:35;;;;;;;18.53;14.40;;;;;;;1.00;100.00;98959.03;4999867;28;20201;-71
2020/12/18 04:16:02;;;;;;;28.63;15.70;;;;;;;1.01;100.00;98960.72;5006223;28;20209;-71
2020/12/18 04:18:29;;;;;;;21.47;15.53;;;;;;;1.07;100.00;98956.91;4984689;28;20236;-72
2020/12/18 04:20:56;;;;;;;19.37;15.90;;;;;;;1.19;100.00;98961.53;5003251;28;20197;-71
2020/12/18 04:23:23;;;;;;;17.57;14.90;;;;;;;1.10;100.00;98961.97;4975218;28;20710;-72
2020/12/18 04:25:50;;;;;;;23.73;17.07;;;;;;;1.17;100.00;98957.28;5007149;28;20242;-73
2020/12/18 04:28:18;;;;;;;19.40;15.13;;;;;;;1.18;100.00;98949.38;5006964;28;20230;-72
2020/12/18 04:30:46;;;;;;;17.23;14.83;;;;;;;1.05;100.00;98956.16;5007019;28;20213;-72
2020/12/18 04:33:13;;;;;;;19.60;15.33;;;;;;;1.19;100.00;98952.81;5012037;28;20208;-71
2020/12/18 04:35:40;;;;;;;24.07;18.07;;;;;;;1.32;100.00;98955.63;4974901;28;20225;-72
2020/12/18 04:38:12;;;;;;;21.50;17.90;;;;;;;1.24;100.00;98951.66;5014227;28;20228;-72
2020/12/18 04:40:41;;;;;;;21.20;16.80;;;;;;;1.27;100.00;98958.47;4970119;28;20216;-73
2020/12/18 04:43:08;;;;;;;20.70;17.27;;;;;;;1.12;100.00;98953.16;5012263;28;20211;-74
2020/12/18 04:45:36;;;;;;;19.20;16.50;;;;;;;1.27;100.00;98961.09;4983959;28;20223;-73
2020/12/18 04:48:06;;;;;;;24.60;15.50;;;;;;;1.23;100.00;98957.81;4984894;28;21042;-72
2020/12/18 04:50:33;;;;;;;18.07;15.73;;;;;;;1.27;100.00;98953.25;4976649;28;20339;-71
2020/12/18 04:53:01;;;;;;;18.87;15.43;;;;;;;1.32;100.00;98959.06;4984985;28;21444;-71
2020/12/18 04:55:29;;;;;;;28.50;17.50;;;;;;;1.34;100.00;98959.00;4975530;28;20513;-73
2020/12/18 04:57:57;;;;;;;17.13;14.97;;;;;;;1.26;100.00;98962.03;5008547;28;20224;-73
2020/12/18 05:00:24;;;;;;;22.47;15.43;;;;;;;1.33;100.00;98962.53;5007137;28;20196;-72
2020/12/18 05:02:52;;;;;;;23.43;14.67;;;;;;;1.34;100.00;98957.25;5006585;28;20337;-74
2020/12/18 05:05:19;;;;;;;21.03;14.77;;;;;;;1.38;100.00;98961.38;4979060;28;20428;-73
2020/12/18 05:07:46;;;;;;;29.40;16.80;;;;;;;1.40;100.00;98964.75;4992938;28;20338;-74
2020/12/18 05:10:13;;;;;;;27.97;16.60;;;;;;;1.37;100.00;98967.53;4969151;28;20296;-71
2020/12/18 05:12:40;;;;;;;18.00;15.30;;;;;;;1.44;100.00;98968.03;5001073;28;20236;-74
2020/12/18 05:15:07;;;;;;;23.13;14.77;;;;;;;1.28;100.00;98961.03;4998756;28;20228;-73
2020/12/18 05:17:35;;;;;;;18.33;14.77;;;;;;;1.35;100.00;98966.78;5001232;28;20228;-74
2020/12/18 05:20:03;;;;;;;19.37;14.70;;;;;;;1.32;100.00;98974.75;4999359;28;20263;-73
2020/12/18 05:22:30;;;;;;;20.47;15.70;;;;;;;1.39;100.00;98967.44;4984780;28;20287;-73
2020/12/18 05:24:58;;;;;;;16.63;14.53;;;;;;;1.37;100.00;98964.94;4985512;28;20558;-74
2020/12/18 05:27:25;;;;;;;20.10;15.50;;;;;;;1.37;100.00;98969.28;4979522;28;20881;-73
2020/12/18 05:29:52;;;;;;;23.83;15.13;;;;;;;1.54;100.00;98981.47;5001154;28;20231;-73
2020/12/18 05:32:19;;;;;;;22.33;16.30;;;;;;;1.37;100.00;98980.59;4999796;28;20197;-74
2020/12/18 05:34:46;;;;;;;19.10;16.43;;;;;;;1.35;100.00;98977.22;5006867;28;20756;-74
2020/12/18 05:37:15;;;;;;;20.67;16.80;;;;;;;1.25;100.00;98978.63;4980138;28;20228;-73
2020/12/18 05:39:43;;;;;;;23.03;15.93;;;;;;;1.34;100.00;98986.00;4993327;28;20861;-72
2020/12/18 05:42:10;;;;;;;28.27;17.47;;;;;;;1.32;100.00;98979.16;4970389;28;20213;-72
2020/12/18 05:44:37;;;;;;;19.30;15.77;;;;;;;1.26;100.00;98981.16;5004152;28;20264;-73
2020/12/18 05:47:06;;;;;;;26.73;16.60;;;;;;;1.46;100.00;98984.47;5007442;28;20251;-72
2020/12/18 05:49:34;;;;;;;24.00;14.97;;;;;;;1.61;100.00;98982.81;5003659;28;20201;-75
2020/12/18 05:52:01;;;;;;;17.87;15.00;;;;;;;1.70;100.00;98986.69;4984785;28;20220;-73
2020/12/18 05:54:33;;;;;;;18.40;13.70;;;;;;;1.48;100.00;98992.22;4992955;28;20979;-73
2020/12/18 05:57:10;;;;;;;25.50;16.03;;;;;;;1.44;100.00;98989.78;4970553;28;20243;-74
2020/12/18 05:59:41;;;;;;;18.30;15.70;;;;;;;1.54;100.00;98986.69;4995619;28;20229;-72
2020/12/18 06:02:11;;;;;;;18.33;15.40;;;;;;;1.53;100.00;98983.25;4976413;28;21714;-74
2020/12/18 06:04:38;;;;;;;17.73;15.53;;;;;;;1.61;100.00;98985.41;4994855;28;20558;-75
2020/12/18 06:07:06;;;;;;;18.53;14.70;;;;;;;1.43;100.00;98985.50;4975485;28;20232;-75
2020/12/18 06:09:35;;;;;;;19.97;15.70;;;;;;;1.37;100.00;98983.22;5008361;28;20618;-74
2020/12/18 06:12:07;;;;;;;23.10;15.60;;;;;;;1.45;100.00;98988.00;4966090;28;20215;-74
2020/12/18 06:14:34;;;;;;;17.73;15.63;;;;;;;1.36;100.00;98985.88;4988846;28;20232;-77
2020/12/18 06:17:07;;;;;;;16.83;14.13;;;;;;;1.46;100.00;98978.41;5004957;28;20259;-73
2020/12/18 06:19:38;;;;;;;20.03;16.23;;;;;;;1.32;100.00;98984.38;4989635;28;20703;-74
2020/12/18 06:22:06;;;;;;;21.17;15.73;;;;;;;1.20;100.00;98978.88;4980859;28;20216;-72
2020/12/18 06:24:41;;;;;;;19.03;16.83;;;;;;;1.24;100.00;98985.63;5005009;28;20256;-74
2020/12/18 06:27:12;;;;;;;17.67;15.33;;;;;;;1.39;100.00;98985.72;5002230;28;20317;-74
2020/12/18 06:29:39;;;;;;;17.77;15.67;;;;;;;1.41;100.00;98982.13;4971736;28;20212;-73
2020/12/18 06:32:23;;;;;;;17.40;14.47;;;;;;;1.30;100.00;98980.06;5006792;28;20536;-72
2020/12/18 06:34:51;;;;;;;17.57;15.03;;;;;;;1.24;100.00;98987.38;4988771;28;20232;-72
2020/12/18 06:37:28;;;;;;;22.10;19.77;;;;;;;1.12;100.00;98981.88;5005274;28;20216;-73
2020/12/18 06:39:57;;;;;;;27.67;23.07;;;;;;;1.26;100.00;98985.53;4990671;28;20518;-72
2020/12/18 06:42:25;;;;;;;32.10;28.73;;;;;;;1.34;100.00;98986.00;5013950;28;20668;-72
2020/12/18 06:44:53;;;;;;;19.23;16.50;;;;;;;1.44;100.00;98989.78;4972795;28;20217;-74
2020/12/18 06:47:28;;;;;;;18.87;16.83;;;;;;;1.32;100.00;98997.44;5010255;28;20610;-73
2020/12/18 06:50:11;;;;;;;19.67;17.87;;;;;;;1.17;100.00;98989.47;4981544;28;20206;-73
2020/12/18 06:52:49;;;;;;;20.07;15.43;;;;;;;1.20;100.00;98994.53;4995962;28;20227;-73
2020/12/18 06:55:35;;;;;;;18.87;14.17;;;;;;;1.23;100.00;98988.28;4987914;28;20231;-73
2020/12/18 06:58:09;;;;;;;15.23;13.73;;;;;;;1.27;100.00;98985.47;5013354;28;20771;-73
2020/12/18 07:00:37;;;;;;;13.93;10.87;;;;;;;1.29;100.00;98995.81;4989718;28;20220;-73
2020/12/18 07:03:05;;;;;;;12.97;11.73;;;;;;;1.27;100.00;98989.81;5014580;28;20208;-73
2020/12/18 07:05:34;;;;;;;12.87;11.67;;;;;;;1.23;100.00;98993.53;4998539;28;20397;-73
2020/12/18 07:08:03;;;;;;;13.77;12.27;;;;;;;1.39;100.00;98985.72;5009770;28;20240;-74
2020/12/18 07:10:32;;;;;;;22.77;20.80;;;;;;;1.13;100.00;98988.78;4982990;28;20501;-74
2020/12/18 07:13:00;;;;;;;21.17;19.13;;;;;;;1.18;100.00;98985.09;5008012;28;20758;-72
2020/12/18 07:15:28;;;;;;;15.73;14.03;;;;;;;1.34;100.00;98985.13;4974030;28;20571;-74
2020/12/18 07:17:56;;;;;;;16.07;12.77;;;;;;;1.30;100.00;98994.88;5004690;28;20235;-74
2020/12/18 07:20:27;;;;;;;16.27;13.43;;;;;;;1.10;100.00;98986.34;4978707;28;20238;-72
2020/12/18 07:22:54;;;;;;;17.20;15.50;;;;;;;1.02;100.00;98988.50;5006010;28;20208;-74
2020/12/18 07:25:21;;;;;;;16.40;14.80;;;;;;;1.05;100.00;98983.13;4983120;28;20216;-72
2020/12/18 07:27:48;;;;;;;16.70;14.87;;;;;;;0.97;100.00;98988.72;5002624;28;20490;-72
2020/12/18 07:30:16;;;;;;;15.80;13.93;;;;;;;1.17;100.00;98979.03;4989115;28;20447;-73
2020/12/18 07:32:44;;;;;;;18.50;13.33;;;;;;;1.05;100.00;98977.91;4994902;28;20463;-75
2020/12/18 07:35:13;;;;;;;19.63;16.13;;;;;;;1.79;100.00;98983.56;4983086;28;20229;-73
2020/12/18 07:37:40;;;;;;;19.50;15.70;;;;;;;1.70;100.00;98992.75;4979228;28;20232;-73
2020/12/18 07:40:07;;;;;;;16.30;14.23;;;;;;;1.60;100.00;98994.19;5002467;28;20703;-72
2020/12/18 07:42:40;;;;;;;18.77;15.33;;;;;;;2.06;100.00;98989.97;4992346;28;21016;-72
2020/12/18 07:45:09;;;;;;;20.17;16.20;;;;;;;2.05;100.00;98996.13;4988863;28;20216;-73
2020/12/18 07:47:39;;;;;;;19.23;16.73;;;;;;;1.90;100.00;99001.28;4989488;28;20257;-72
2020/12/18 07:50:07;;;;;;;17.93;15.63;;;;;;;2.12;100.00;99006.19;4989301;28;20204;-72
2020/12/18 07:52:35;;;;;;;20.13;16.17;;;;;;;2.19;100.00;99000.59;4990188;28;20201;-72
2020/12/18 07:55:03;;;;;;;18.03;16.10;;;;;;;1.87;100.00;98997.06;5010326;28;21078;-72
2020/12/18 07:57:30;;;;;;;17.23;15.47;;;;;;;2.01;100.00;98993.69;4977858;28;20220;-73
2020/12/18 08:00:08;;;;;;;17.43;14.53;;;;;;;1.82;100.00;98995.66;5010516;28;20228;-73
2020/12/18 08:02:35;;;;;;;24.40;15.73;;;;;;;1.54;100.00;99000.59;4989136;28;20196;-72
2020/12/18 08:05:03;;;;;;;18.73;15.07;;;;;;;1.75;100.00;98997.75;4990736;28;20275;-74
2020/12/18 08:07:30;;;;;;;16.77;14.93;;;;;;;1.91;100.00;99002.16;4990399;28;20224;-72
2020/12/18 08:10:01;;;;;;;16.30;14.43;;;;;;;1.73;100.00;99000.47;5010337;28;20205;-73
2020/12/18 08:12:30;;;;;;;19.23;15.47;;;;;;;1.62;100.00;98994.94;4975812;28;21245;-72
2020/12/18 08:15:07;;;;;;;18.83;16.33;;;;;;;1.59;100.00;98993.34;5003264;28;20994;-72
2020/12/18 08:17:35;;;;;;;24.97;19.43;;;;;;;1.66;100.00;98999.06;4960056;28;20224;-73
2020/12/18 08:20:05;;;;;;;21.97;18.33;;;;;;;1.70;100.00;98994.53;5003664;28;20743;-74
2020/12/18 08:22:35;;;;;;;23.37;18.33;;;;;;;1.96;100.00;98993.09;4979114;28;20935;-73
2020/12/18 08:25:04;;;;;;;17.20;15.37;;;;;;;2.01;100.00;98995.47;5004540;28;20216;-73
2020/12/18 08:27:35;;;;;;;17.83;15.60;;;;;;;1.99;100.00;98989.50;4980026;28;21090;-73
2020/12/18 08:30:05;;;;;;;19.33;16.17;;;;;;;1.95;100.00;98990.59;5004265;28;20212;-74
2020/12/18 08:32:33;;;;;;;19.47;17.33;;;;;;;1.90;100.00;98993.44;4973838;28;21035;-73
2020/12/18 08:35:01;;;;;;;19.73;17.27;;;;;;;1.78;100.00;98989.72;5005780;28;20216;-74
2020/12/18 08:37:29;;;;;;;25.73;18.20;;;;;;;1.83;100.00;98994.72;4975973;28;20387;-71
2020/12/18 08:39:56;;;;;;;24.03;18.30;;;;;;;1.68;100.00;98983.31;4998299;28;20211;-72
2020/12/18 08:42:24;;;;;;;21.50;17.13;;;;;;;1.61;100.00;98987.19;5008740;28;20721;-72
2020/12/18 08:44:51;;;;;;;24.03;18.20;;;;;;;1.65;100.00;98986.94;4991694;28;20208;-73
2020/12/18 08:47:20;;;;;;;22.13;18.40;;;;;;;1.78;100.00;98987.13;4974723;28;20229;-73
2020/12/18 08:49:47;;;;;;;20.77;16.57;;;;;;;1.86;100.00;98982.31;5006489;28;20295;-73
2020/12/18 08:52:14;;;;;;;24.47;18.03;;;;;;;1.88;100.00;98990.06;4977476;28;20205;-74
2020/12/18 08:54:42;;;;;;;20.83;18.47;;;;;;;2.03;100.00;98991.00;4996651;28;20315;-73
2020/12/18 08:57:11;;;;;;;23.37;17.93;;;;;;;2.31;100.00;98992.09;5003506;28;20636;-72
2020/12/18 08:59:38;;;;;;;19.33;17.23;;;;;;;2.41;100.00;98985.38;4976364;28;20714;-72
2020/12/18 09:02:14;;;;;;;20.50;16.27;;;;;;;2.26;100.00;98981.88;5005690;28;20215;-71
2020/12/18 09:04:42;;;;;;;20.07;16.70;;;;;;;2.28;100.00;98990.47;4994628;28;20263;-71
2020/12/18 09:07:09;;;;;;;20.63;16.90;;;;;;;2.08;100.00;98988.97;4994552;28;20231;-72
2020/12/18 09:09:36;;;;;;;19.30;16.67;;;;;;;2.13;100.00;98991.34;4988870;28;20209;-73
2020/12/18 09:12:15;;;;;;;19.37;16.97;;;;;;;2.42;100.00;98988.84;5007616;28;20669;-72
2020/12/18 09:14:42;;;;;;;19.47;17.37;;;;;;;2.20;100.00;98987.44;4969918;28;20226;-72
2020/12/18 09:17:10;;;;;;;20.27;16.87;;;;;;;2.42;100.00;98999.28;4990642;28;20536;-69
2020/12/18 09:19:45;;;;;;;18.97;16.90;;;;;;;2.29;100.00;98996.56;4975381;28;20767;-71
2020/12/18 09:22:12;;;;;;;20.90;17.97;;;;;;;2.38;100.00;98995.19;4979652;28;20513;-72
2020/12/18 09:24:40;;;;;;;30.50;26.37;;;;;;;2.37;100.00;98998.72;4971949;28;20220;-71
2020/12/18 09:27:08;;;;;;;22.27;18.67;;;;;;;2.39;100.00;98992.47;4997458;28;20240;-70
2020/12/18 09:29:36;;;;;;;22.80;20.17;;;;;;;2.44;100.00;98990.44;5000191;28;20217;-72
2020/12/18 09:32:04;;;;;;;27.37;20.90;;;;;;;2.46;100.00;98992.97;4983125;28;20843;-72
2020/12/18 09:34:31;;;;;;;20.60;18.60;;;;;;;2.37;100.00;98985.63;4979205;28;20637;-70
2020/12/18 09:36:59;;;;;;;21.07;18.93;;;;;;;2.39;100.00;98989.88;4984754;28;20359;-72
2020/12/18 09:39:26;;;;;;;24.00;19.33;;;;;;;2.63;100.00;98986.75;5006297;28;20205;-72
2020/12/18 09:41:53;;;;;;;22.10;19.93;;;;;;;2.55;100.00;98988.97;4991627;28;20703;-71
2020/12/18 09:44:20;;;;;;;19.77;17.70;;;;;;;2.55;100.00;98981.97;4997367;28;20212;-72
2020/12/18 09:46:47;;;;;;;17.37;15.60;;;;;;;2.85;100.00;98983.75;4985520;28;20247;-72
2020/12/18 09:49:14;;;;;;;17.77;14.87;;;;;;;2.87;100.00;98981.03;5007870;28;20251;-74
2020/12/18 09:51:46;;;;;;;16.97;15.17;;;;;;;2.95;100.00;98980.56;4972680;28;20712;-72
2020/12/18 09:54:13;;;;;;;17.40;15.80;;;;;;;3.14;100.00;98975.09;4994341;28;20215;-71
2020/12/18 09:56:40;;;;;;;16.77;15.00;;;;;;;3.22;100.00;98979.84;4960647;28;20258;-72
2020/12/18 09:59:07;;;;;;;13.63;12.33;;;;;;;3.22;100.00;98977.22;5000176;28;20200;-72
2020/12/18 10:01:34;;;;;;;15.13;13.73;;;;;;;3.28;100.00;98984.72;4962201;28;20231;-72
2020/12/18 10:04:02;;;;;;;14.60;13.10;;;;;;;3.47;100.00;98979.22;5008536;28;20621;-71
2020/12/18 10:06:31;;;;;;;15.53;14.03;;;;;;;3.30;100.00;98972.38;4971598;28;20589;-71
2020/12/18 10:08:58;;;;;;;12.93;11.63;;;;;;;3.41;100.00;98974.31;4993551;28;20208;-71
2020/12/18 10:11:29;;;;;;;14.53;13.13;;;;;;;3.51;100.00;98971.97;4985793;28;20216;-71
2020/12/18 10:13:56;;;;;;;14.33;12.87;;;;;;;3.57;100.00;98974.22;4999183;28;20200;-72
2020/12/18 10:16:23;;;;;;;13.73;12.33;;;;;;;3.51;100.00;98975.47;4981294;28;20229;-71
2020/12/18 10:18:50;;;;;;;15.20;13.80;;;;;;;3.55;100.00;98966.47;5004495;28;20531;-72
2020/12/18 10:21:18;;;;;;;17.47;15.67;;;;;;;3.30;100.00;98969.75;4974698;28;20633;-71
2020/12/18 10:23:45;;;;;;;16.67;14.90;;;;;;;3.44;100.00;98963.66;4991807;28;20725;-71
2020/12/18 10:26:12;;;;;;;19.87;17.87;;;;;;;3.41;100.00;98967.31;5004509;28;20993;-71
2020/12/18 10:28:39;;;;;;;15.83;14.20;;;;;;;3.55;100.00;98968.22;4992098;28;20234;-70
2020/12/18 10:31:06;;;;;;;20.13;17.73;;;;;;;3.40;100.00;98968.25;5000911;28;20227;-71
2020/12/18 10:33:35;;;;;;;17.27;15.57;;;;;;;3.68;100.00;98957.81;4978657;28;20621;-71
2020/12/18 10:36:02;;;;;;;17.27;15.50;;;;;;;3.70;100.00;98958.56;5003817;28;20224;-72
2020/12/18 10:38:30;;;;;;;18.30;16.53;;;;;;;3.71;100.00;98952.38;4962490;28;20242;-71
2020/12/18 10:40:57;;;;;;;15.67;14.23;;;;;;;3.65;100.00;98947.53;5008730;28;20216;-71
2020/12/18 10:43:24;;;;;;;20.63;18.37;;;;;;;3.58;100.00;98947.06;5005872;28;20413;-71
2020/12/18 10:45:52;;;;;;;23.93;19.93;;;;;;;3.82;100.00;98949.09;5007269;28;20314;-71
2020/12/18 10:48:19;;;;;;;17.70;15.77;;;;;;;3.62;100.00;98945.97;4985643;28;20319;-71
2020/12/18 10:50:46;;;;;;;22.93;20.67;;;;;;;3.65;100.00;98943.16;5007216;28;20204;-70
2020/12/18 10:53:13;;;;;;;16.63;14.93;;;;;;;3.82;100.00;98947.31;4976983;28;20216;-71
2020/12/18 10:55:41;;;;;;;18.53;16.67;;;;;;;4.00;100.00;98941.81;4983824;28;20221;-72
2020/12/18 10:58:08;;;;;;;18.50;16.80;;;;;;;3.75;100.00;98939.00;4993976;28;20239;-72
2020/12/18 11:00:35;;;;;;;16.13;14.63;;;;;;;4.12;100.00;98948.91;4998246;28;20519;-72
2020/12/18 11:03:02;;;;;;;18.00;16.30;;;;;;;4.18;100.00;98939.78;4988011;28;20683;-72
2020/12/18 11:05:29;;;;;;;17.33;15.70;;;;;;;4.11;100.00;98943.75;4987737;28;20325;-73
2020/12/18 11:07:56;;;;;;;17.23;15.43;;;;;;;3.88;100.00;98940.81;4969549;28;20240;-73
2020/12/18 11:10:23;;;;;;;16.13;14.53;;;;;;;3.83;100.00;98940.28;4989543;28;20231;-72
2020/12/18 11:12:51;;;;;;;15.77;14.27;;;;;;;3.81;100.00;98942.16;5001511;28;20418;-72
2020/12/18 11:15:18;;;;;;;18.03;16.40;;;;;;;4.17;100.00;98938.13;4993547;28;20232;-72
2020/12/18 11:17:45;;;;;;;16.87;15.37;;;;;;;4.15;100.00;98943.44;4981753;28;20264;-72
2020/12/18 11:20:12;;;;;;;16.03;14.50;;;;;;;4.18;100.00;98935.41;5009799;28;20422;-73
2020/12/18 11:22:40;;;;;;;17.87;15.97;;;;;;;4.42;100.00;98928.63;4999496;28;20312;-72